Time;durP1;ratioP1;P1;durP2;ratioP2;P2;SDS_P1;SDS_P2;PMS_P1;PMS_P2;Temp;Humidity;BMP_temperature;BMP_pressure;BME280_temperature;BME280_humidity;BME280_pressure;Samples;Min_cycle;Max_cycle;Signal;HPM_P1;HPM_P2
2023/05/02 00:00:46;;;;;;;21.15;11.70;;;;;;;12.54;100.00;101898.78;5005379;28;20046;-72
2023/05/02 00:03:12;;;;;;;24.05;11.73;;;;;;;12.60;100.00;101902.69;4994353;28;20049;-70
2023/05/02 00:05:39;;;;;;;19.08;10.70;;;;;;;12.57;100.00;101901.16;5006036;28;20471;-71
2023/05/02 00:08:06;;;;;;;21.02;12.05;;;;;;;12.63;100.00;101907.69;4996083;28;20057;-72
2023/05/02 00:10:33;;;;;;;21.80;11.93;;;;;;;12.61;100.00;101893.84;4999911;28;20050;-71
2023/05/02 00:12:59;;;;;;;16.80;10.00;;;;;;;12.58;100.00;101900.16;5000806;28;20061;-72
2023/05/02 00:15:26;;;;;;;16.77;9.85;;;;;;;12.51;100.00;101903.50;5000584;28;20112;-71
2023/05/02 00:17:52;;;;;;;18.20;9.98;;;;;;;12.46;100.00;101903.88;5008512;28;20108;-71
2023/05/02 00:20:19;;;;;;;16.90;9.48;;;;;;;12.49;100.00;101900.16;5002456;28;20049;-71
2023/05/02 00:22:45;;;;;;;18.98;9.23;;;;;;;12.48;100.00;101901.94;5008335;28;20076;-70
2023/05/02 00:25:16;;;;;;;17.67;8.40;;;;;;;12.50;100.00;101904.44;4982976;28;20049;-70
2023/05/02 00:27:45;;;;;;;14.73;7.88;;;;;;;12.53;100.00;101907.66;5006065;28;20049;-71
2023/05/02 00:30:12;;;;;;;14.27;7.53;;;;;;;12.48;100.00;101901.94;5003931;28;20592;-71
2023/05/02 00:32:39;;;;;;;15.48;8.20;;;;;;;12.51;100.00;101904.31;4989295;28;20050;-70
2023/05/02 00:35:06;;;;;;;14.57;7.80;;;;;;;12.54;100.00;101911.94;4998093;28;20049;-70
2023/05/02 00:37:33;;;;;;;14.32;8.73;;;;;;;12.46;100.00;101915.22;4999862;28;20060;-70
2023/05/02 00:40:00;;;;;;;14.95;7.93;;;;;;;12.45;100.00;101915.38;5004306;28;20481;-70
2023/05/02 00:42:30;;;;;;;16.02;8.25;;;;;;;12.48;100.00;101919.53;5008976;28;20057;-70
2023/05/02 00:44:56;;;;;;;13.65;7.85;;;;;;;12.48;100.00;101909.00;5005618;28;20140;-70
2023/05/02 00:47:23;;;;;;;15.68;7.78;;;;;;;12.44;100.00;101917.16;5009453;28;20053;-70
2023/05/02 00:49:49;;;;;;;15.02;8.90;;;;;;;12.42;100.00;101915.63;5002707;28;20160;-70
2023/05/02 00:52:16;;;;;;;14.13;8.30;;;;;;;12.43;100.00;101915.50;5004709;28;20398;-70
2023/05/02 00:54:43;;;;;;;17.58;8.52;;;;;;;12.40;100.00;101915.75;4992944;28;20499;-70
2023/05/02 00:57:09;;;;;;;20.17;9.15;;;;;;;12.43;100.00;101922.56;5009514;28;20593;-70
2023/05/02 00:59:36;;;;;;;15.75;8.30;;;;;;;12.37;100.00;101920.47;5008178;28;20147;-70
2023/05/02 01:02:31;;;;;;;19.17;8.82;;;;;;;12.29;100.00;101925.53;5004037;28;20561;-68
2023/05/02 01:05:10;;;;;;;15.38;8.57;;;;;;;12.32;100.00;101925.28;5007635;28;20112;-69
2023/05/02 01:07:53;;;;;;;14.80;8.48;;;;;;;12.31;100.00;101923.59;4992959;28;20050;-69
2023/05/02 01:10:33;;;;;;;18.38;9.23;;;;;;;12.26;100.00;101926.63;5005293;28;20430;-69
2023/05/02 01:13:08;;;;;;;14.75;8.70;;;;;;;12.23;100.00;101925.09;4992597;28;20647;-69
2023/05/02 01:15:37;;;;;;;15.90;8.95;;;;;;;12.26;100.00;101921.38;5008425;28;20054;-68
2023/05/02 01:18:08;;;;;;;16.75;8.60;;;;;;;12.30;100.00;101924.56;5002519;28;20046;-68
2023/05/02 01:20:40;;;;;;;13.52;8.13;;;;;;;12.31;100.00;101921.81;5000488;28;20046;-69
2023/05/02 01:23:17;;;;;;;14.57;8.30;;;;;;;12.35;100.00;101922.38;4998638;28;20058;-69
2023/05/02 01:26:14;;;;;;;14.75;8.68;;;;;;;12.42;100.00;101926.97;5008381;28;20045;-69
2023/05/02 01:28:56;;;;;;;14.47;8.33;;;;;;;12.49;100.00;101926.47;5009175;28;20057;-69
2023/05/02 01:31:26;;;;;;;14.38;8.77;;;;;;;12.44;100.00;101922.41;5004934;28;20046;-69
2023/05/02 01:33:54;;;;;;;18.20;9.23;;;;;;;12.45;100.00;101928.53;5003163;28;20041;-69
2023/05/02 01:36:25;;;;;;;14.85;8.88;;;;;;;12.42;100.00;101932.25;4998397;28;20061;-68
2023/05/02 01:38:54;;;;;;;14.80;8.00;;;;;;;12.46;100.00;101933.66;4996022;28;20062;-69
2023/05/02 01:41:24;;;;;;;14.93;8.80;;;;;;;12.50;100.00;101931.59;5003398;28;20050;-69
2023/05/02 01:43:56;;;;;;;17.05;9.85;;;;;;;12.49;100.00;101948.38;5008316;28;20056;-69
2023/05/02 01:46:25;;;;;;;18.13;9.32;;;;;;;12.54;100.00;101940.88;5002161;28;20056;-69
2023/05/02 01:48:54;;;;;;;18.17;9.65;;;;;;;12.50;100.00;101938.66;5007248;28;20054;-69
2023/05/02 01:51:24;;;;;;;17.85;10.30;;;;;;;12.44;100.00;101943.47;5003449;28;20125;-70
2023/05/02 01:53:51;;;;;;;15.85;10.27;;;;;;;12.38;100.00;101948.44;5002473;28;20050;-69
2023/05/02 01:56:20;;;;;;;16.02;9.35;;;;;;;12.41;100.00;101945.56;5008523;28;20050;-68
2023/05/02 01:58:47;;;;;;;17.35;9.90;;;;;;;12.41;100.00;101948.19;5003670;28;20058;-69
2023/05/02 02:01:16;;;;;;;15.93;9.47;;;;;;;12.44;100.00;101951.38;4999220;28;20483;-69
2023/05/02 02:03:43;;;;;;;21.20;9.45;;;;;;;12.46;100.00;101952.06;5001913;28;20517;-69
2023/05/02 02:06:12;;;;;;;14.98;9.27;;;;;;;12.48;100.00;101961.63;5003894;28;20042;-69
2023/05/02 02:08:39;;;;;;;18.25;9.40;;;;;;;12.50;100.00;101962.34;5009318;28;20054;-69
2023/05/02 02:11:10;;;;;;;16.17;9.48;;;;;;;12.53;100.00;101970.81;4998559;28;20058;-69
2023/05/02 02:13:42;;;;;;;15.18;8.48;;;;;;;12.41;100.00;101959.53;5008174;28;20558;-70
2023/05/02 02:16:11;;;;;;;18.77;9.48;;;;;;;12.43;100.00;101954.97;4998390;28;20049;-69
2023/05/02 02:18:38;;;;;;;15.00;8.05;;;;;;;12.40;100.00;101959.66;5003721;28;20576;-69
2023/05/02 02:21:07;;;;;;;12.70;6.82;;;;;;;12.37;100.00;101958.13;4993253;28;20141;-69
2023/05/02 02:23:37;;;;;;;11.75;6.60;;;;;;;12.37;100.00;101962.56;5006711;28;20427;-69
2023/05/02 02:26:05;;;;;;;12.85;6.63;;;;;;;12.41;100.00;101966.59;5008278;28;20050;-69
2023/05/02 02:28:33;;;;;;;13.55;6.82;;;;;;;12.30;100.00;101972.75;5000920;28;20092;-69
2023/05/02 02:30:59;;;;;;;14.10;6.68;;;;;;;12.35;100.00;101975.00;5007902;28;20052;-69
2023/05/02 02:33:29;;;;;;;17.23;6.43;;;;;;;12.35;100.00;101972.34;4996911;28;20054;-68
2023/05/02 02:36:20;;;;;;;14.00;5.40;;;;;;;12.36;100.00;101980.13;5004518;28;20152;-68
2023/05/02 02:38:56;;;;;;;10.10;4.47;;;;;;;12.28;100.00;101990.47;4999523;28;20054;-69
2023/05/02 02:41:39;;;;;;;9.80;3.97;;;;;;;12.18;100.00;101995.66;5008104;28;20069;-68
2023/05/02 02:44:19;;;;;;;12.73;4.15;;;;;;;12.19;100.00;102007.03;5001601;28;20049;-69
2023/05/02 02:47:30;;;;;;;17.35;4.65;;;;;;;12.14;100.00;102017.94;5003183;28;20049;-68
2023/05/02 02:50:21;;;;;;;8.32;3.13;;;;;;;12.08;100.00;102013.19;4990603;28;20132;-69
2023/05/02 02:52:54;;;;;;;9.98;3.13;;;;;;;12.00;100.00;102013.00;5005426;28;20045;-69
2023/05/02 02:55:35;;;;;;;11.63;2.90;;;;;;;11.87;100.00;102029.72;4996438;28;20053;-70
2023/05/02 02:58:20;;;;;;;8.07;2.65;;;;;;;11.82;100.00;102031.09;5007050;28;20418;-70
2023/05/02 03:00:48;;;;;;;7.95;2.55;;;;;;;11.72;100.00;102012.59;4996437;28;20289;-70
2023/05/02 03:03:17;;;;;;;7.38;2.40;;;;;;;11.71;100.00;102020.59;5001750;28;20490;-70
2023/05/02 03:05:45;;;;;;;7.75;2.35;;;;;;;11.77;100.00;102020.09;5006672;28;20053;-71
2023/05/02 03:08:12;;;;;;;5.80;2.55;;;;;;;11.75;100.00;102025.47;5001377;28;20045;-70
2023/05/02 03:10:39;;;;;;;8.40;2.38;;;;;;;11.80;100.00;102028.56;5005174;28;20073;-70
2023/05/02 03:13:05;;;;;;;10.65;2.65;;;;;;;11.76;100.00;102037.66;4987860;28;20053;-70
2023/05/02 03:15:50;;;;;;;9.38;2.28;;;;;;;11.76;100.00;102047.31;4995753;28;20049;-71
2023/05/02 03:18:17;;;;;;;6.95;2.20;;;;;;;11.74;100.00;102049.25;4996717;28;20632;-71
2023/05/02 03:20:44;;;;;;;9.93;2.60;;;;;;;11.70;100.00;102053.09;5005637;28;20041;-70
2023/05/02 03:23:10;;;;;;;6.57;2.22;;;;;;;11.68;100.00;102053.19;5007457;28;20046;-70
2023/05/02 03:25:37;;;;;;;8.45;2.35;;;;;;;11.59;100.00;102054.78;4999418;28;20136;-70
2023/05/02 03:28:04;;;;;;;8.85;2.40;;;;;;;11.55;100.00;102053.38;5002258;28;20121;-70
2023/05/02 03:30:30;;;;;;;12.25;2.50;;;;;;;11.54;100.00;102056.09;4991562;28;20047;-70
2023/05/02 03:32:57;;;;;;;7.07;2.13;;;;;;;11.60;100.00;102045.09;4993049;28;20053;-71
2023/05/02 03:35:23;;;;;;;8.23;2.05;;;;;;;11.59;100.00;102054.78;4999539;28;20054;-70
2023/05/02 03:37:50;;;;;;;9.02;2.30;;;;;;;11.54;100.00;102067.44;5004630;28;20122;-71
2023/05/02 03:40:20;;;;;;;7.45;2.10;;;;;;;11.41;100.00;102072.03;5006618;28;20617;-72
2023/05/02 03:42:47;;;;;;;6.40;1.85;;;;;;;11.31;100.00;102074.53;4996279;28;20499;-70
2023/05/02 03:45:13;;;;;;;14.30;2.85;;;;;;;11.31;100.00;102084.19;4999942;28;20049;-69
2023/05/02 03:47:40;;;;;;;6.90;1.85;;;;;;;11.28;100.00;102075.59;5000371;28;20046;-70
2023/05/02 03:50:06;;;;;;;9.95;2.72;;;;;;;11.24;100.00;102074.16;5007080;28;20100;-70
2023/05/02 03:52:33;;;;;;;10.80;2.50;;;;;;;11.24;100.00;102071.53;5003426;28;20056;-70
2023/05/02 03:55:00;;;;;;;5.82;1.73;;;;;;;11.25;100.00;102081.09;5008536;28;20056;-71
2023/05/02 03:57:30;;;;;;;8.50;2.15;;;;;;;11.23;100.00;102087.41;5006110;28;20509;-70
2023/05/02 03:59:56;;;;;;;8.50;2.05;;;;;;;11.23;100.00;102092.66;4998567;28;20045;-70
2023/05/02 04:02:24;;;;;;;8.73;1.80;;;;;;;11.20;100.00;102090.31;5010005;28;20537;-70
2023/05/02 04:04:50;;;;;;;6.18;1.88;;;;;;;11.23;100.00;102101.41;5004126;28;20145;-70
2023/05/02 04:07:18;;;;;;;9.95;2.05;;;;;;;11.24;100.00;102100.44;5009520;28;20161;-70
2023/05/02 04:09:45;;;;;;;8.30;2.03;;;;;;;11.27;100.00;102100.22;5004990;28;20052;-70
2023/05/02 04:12:13;;;;;;;6.22;1.63;;;;;;;11.32;100.00;102102.47;5004149;28;20538;-70
2023/05/02 04:14:40;;;;;;;10.98;2.67;;;;;;;11.31;100.00;102103.44;5006124;28;20046;-70
2023/05/02 04:17:06;;;;;;;7.45;1.63;;;;;;;11.36;100.00;102097.81;4999265;28;20111;-70
2023/05/02 04:19:34;;;;;;;6.97;1.80;;;;;;;11.35;100.00;102099.63;5004110;28;20056;-71
2023/05/02 04:22:01;;;;;;;10.50;1.90;;;;;;;11.36;100.00;102100.44;5004194;28;20050;-72
2023/05/02 04:24:28;;;;;;;8.18;2.00;;;;;;;11.30;100.00;102107.00;5008681;28;20041;-70
2023/05/02 04:26:54;;;;;;;5.82;1.90;;;;;;;11.18;100.00;102113.22;4997849;28;20491;-70
2023/05/02 04:29:21;;;;;;;9.98;1.77;;;;;;;11.16;100.00;102117.75;4998152;28;20141;-70
2023/05/02 04:31:48;;;;;;;7.05;1.58;;;;;;;11.16;100.00;102123.84;4998149;28;20060;-70
2023/05/02 04:34:14;;;;;;;7.82;2.00;;;;;;;11.11;100.00;102119.88;5003323;28;20053;-71
2023/05/02 04:36:41;;;;;;;7.93;2.25;;;;;;;11.17;100.00;102136.03;5009026;28;20053;-70
2023/05/02 04:39:08;;;;;;;5.05;1.67;;;;;;;11.19;100.00;102138.50;5001836;28;20072;-70
2023/05/02 04:41:35;;;;;;;9.43;2.38;;;;;;;11.19;100.00;102149.03;5001442;28;20505;-70
2023/05/02 04:44:01;;;;;;;6.38;1.80;;;;;;;11.24;100.00;102146.88;5001682;28;20524;-70
2023/05/02 04:46:27;;;;;;;6.05;2.05;;;;;;;11.18;100.00;102147.38;5009375;28;20544;-70
2023/05/02 04:48:54;;;;;;;8.13;1.90;;;;;;;11.18;100.00;102156.06;5008693;28;20054;-70
2023/05/02 04:51:21;;;;;;;8.40;1.88;;;;;;;11.25;100.00;102157.28;5002320;28;20046;-69
2023/05/02 04:53:47;;;;;;;4.55;1.25;;;;;;;11.23;100.00;102163.59;5005725;28;20287;-70
2023/05/02 04:56:13;;;;;;;4.80;1.35;;;;;;;11.24;100.00;102173.16;4997419;28;20136;-70
2023/05/02 04:58:40;;;;;;;4.55;1.75;;;;;;;11.26;100.00;102168.63;5009064;28;20073;-70
2023/05/02 05:01:06;;;;;;;6.88;1.73;;;;;;;11.22;100.00;102172.44;5008390;28;20046;-70
2023/05/02 05:03:33;;;;;;;4.63;1.60;;;;;;;11.29;100.00;102184.16;5002405;28;20054;-70
2023/05/02 05:06:01;;;;;;;5.05;1.40;;;;;;;11.30;100.00;102183.19;5008638;28;20064;-71
2023/05/02 05:08:27;;;;;;;6.15;1.63;;;;;;;11.26;99.70;102184.38;4999371;28;20054;-70
2023/05/02 05:10:54;;;;;;;4.80;1.50;;;;;;;11.28;100.00;102190.34;5003730;28;20108;-69
2023/05/02 05:13:22;;;;;;;6.95;1.80;;;;;;;11.30;99.82;102188.44;5002312;28;20513;-69
2023/05/02 05:15:48;;;;;;;6.65;1.40;;;;;;;11.35;99.34;102194.19;5008247;28;20053;-68
2023/05/02 05:18:15;;;;;;;7.10;1.67;;;;;;;11.47;99.00;102203.75;5008705;28;20056;-69
2023/05/02 05:20:41;;;;;;;6.03;1.20;;;;;;;11.50;96.63;102207.09;5003349;28;20050;-69
2023/05/02 05:23:07;;;;;;;4.68;1.45;;;;;;;11.51;97.17;102208.78;5005841;28;20144;-68
2023/05/02 05:25:34;;;;;;;7.65;1.80;;;;;;;11.56;96.68;102227.63;4997682;28;20041;-69
2023/05/02 05:28:00;;;;;;;9.88;1.60;;;;;;;11.61;95.82;102222.88;5009029;28;20441;-69
2023/05/02 05:30:27;;;;;;;9.45;2.40;;;;;;;11.58;91.52;102226.56;5003139;28;20045;-68
2023/05/02 05:32:53;;;;;;;6.50;1.50;;;;;;;11.59;89.82;102236.13;5008118;28;20056;-69
2023/05/02 05:35:20;;;;;;;4.90;1.38;;;;;;;11.56;89.96;102228.47;5008865;28;20054;-69
2023/05/02 05:37:46;;;;;;;9.48;1.58;;;;;;;11.58;88.20;102234.44;4998444;28;20058;-68
2023/05/02 05:40:13;;;;;;;5.60;1.65;;;;;;;11.56;88.43;102241.59;5003400;28;20474;-68
2023/05/02 05:42:39;;;;;;;9.27;1.75;;;;;;;11.49;87.71;102243.03;5002373;28;20068;-70
2023/05/02 05:45:06;;;;;;;5.85;1.83;;;;;;;11.53;88.89;102247.09;5008522;28;20056;-69
2023/05/02 05:47:33;;;;;;;6.90;1.60;;;;;;;11.59;89.66;102251.06;5002772;28;20984;-69
2023/05/02 05:50:00;;;;;;;8.13;1.77;;;;;;;11.61;89.75;102251.78;5008129;28;21081;-69
2023/05/02 05:52:27;;;;;;;9.45;2.30;;;;;;;11.62;90.42;102262.19;5004441;28;20046;-69
2023/05/02 05:54:55;;;;;;;7.57;2.10;;;;;;;11.65;90.84;102271.59;4999663;28;20061;-69
2023/05/02 05:57:22;;;;;;;7.85;1.73;;;;;;;11.70;90.95;102272.06;5008754;28;20050;-69
2023/05/02 05:59:49;;;;;;;8.30;1.75;;;;;;;11.80;90.02;102272.19;5002760;28;20081;-69
2023/05/02 06:02:18;;;;;;;4.03;1.33;;;;;;;11.79;86.90;102281.06;5007679;28;20470;-69
2023/05/02 06:04:47;;;;;;;8.23;1.83;;;;;;;11.77;87.80;102288.22;4995894;28;20092;-69
2023/05/02 06:07:14;;;;;;;7.88;1.73;;;;;;;11.72;83.36;102293.00;5002825;28;20050;-68
2023/05/02 06:09:40;;;;;;;4.57;1.40;;;;;;;11.71;84.12;102294.78;5005134;28;20555;-69
2023/05/02 06:12:07;;;;;;;7.03;1.80;;;;;;;11.61;83.59;102301.72;4999611;28;20129;-69
2023/05/02 06:14:33;;;;;;;11.60;1.98;;;;;;;11.69;83.69;102307.22;5007842;28;20517;-69
2023/05/02 06:17:00;;;;;;;6.93;1.40;;;;;;;11.73;84.79;102313.91;5000648;28;20891;-69
2023/05/02 06:19:26;;;;;;;8.93;1.80;;;;;;;11.73;82.72;102308.66;5004397;28;20132;-69
2023/05/02 06:21:53;;;;;;;6.35;1.80;;;;;;;11.77;81.98;102317.16;5004823;28;20411;-70
2023/05/02 06:24:19;;;;;;;12.02;2.40;;;;;;;11.79;82.47;102323.13;4975933;28;20141;-68
2023/05/02 06:26:45;;;;;;;13.20;3.35;;;;;;;11.80;81.15;102314.25;5006452;28;20066;-68
2023/05/02 06:29:12;;;;;;;8.02;2.22;;;;;;;11.84;82.22;102328.88;5001279;28;20050;-70
2023/05/02 06:31:39;;;;;;;10.93;3.13;;;;;;;11.79;81.78;102333.63;5006858;28;20057;-68
2023/05/02 06:34:05;;;;;;;14.13;2.45;;;;;;;11.74;82.16;102333.13;4997642;28;20050;-69
2023/05/02 06:36:31;;;;;;;14.70;3.88;;;;;;;11.75;84.37;102334.84;5003156;28;20057;-69
2023/05/02 06:38:58;;;;;;;15.65;4.00;;;;;;;11.79;83.76;102349.41;5004601;28;20049;-69
2023/05/02 06:41:24;;;;;;;9.50;2.30;;;;;;;11.81;84.20;102348.34;4999833;28;20723;-69
2023/05/02 06:43:51;;;;;;;15.32;3.97;;;;;;;11.83;85.48;102350.84;5007203;28;20046;-69
2023/05/02 06:46:19;;;;;;;14.15;3.03;;;;;;;11.91;81.43;102356.38;4994439;28;20057;-68
2023/05/02 06:48:46;;;;;;;7.07;1.60;;;;;;;11.90;80.35;102360.00;5007149;28;20057;-69
2023/05/02 06:51:13;;;;;;;10.85;2.30;;;;;;;11.93;79.78;102380.78;5003017;28;20132;-68
2023/05/02 06:53:40;;;;;;;13.90;3.72;;;;;;;11.96;80.40;102369.19;5007866;28;20528;-68
2023/05/02 06:56:07;;;;;;;14.07;3.08;;;;;;;12.02;81.84;102381.88;5007998;28;20136;-69
2023/05/02 06:58:33;;;;;;;12.88;3.30;;;;;;;12.00;79.00;102371.47;4987797;28;20426;-69
2023/05/02 07:00:59;;;;;;;13.57;2.35;;;;;;;12.04;78.24;102378.16;5002296;28;20085;-69
2023/05/02 07:03:26;;;;;;;12.15;2.80;;;;;;;12.15;78.81;102392.28;5000569;28;20109;-69
2023/05/02 07:05:53;;;;;;;12.02;2.70;;;;;;;12.17;77.19;102382.47;5005907;28;20050;-68
2023/05/02 07:08:21;;;;;;;13.85;3.17;;;;;;;12.25;76.36;102393.22;4994897;28;20427;-69
2023/05/02 07:10:47;;;;;;;9.98;2.97;;;;;;;12.27;77.40;102386.91;5006205;28;20046;-68
2023/05/02 07:13:14;;;;;;;12.65;2.90;;;;;;;12.36;77.89;102392.41;5003372;28;20038;-68
2023/05/02 07:15:41;;;;;;;9.48;1.98;;;;;;;12.46;74.72;102396.81;4997217;28;20054;-69
2023/05/02 07:18:08;;;;;;;13.80;1.95;;;;;;;12.57;71.78;102401.25;5007485;28;20092;-69
2023/05/02 07:20:34;;;;;;;10.23;2.10;;;;;;;12.57;71.96;102410.97;5001287;28;20053;-68
2023/05/02 07:23:01;;;;;;;10.73;2.42;;;;;;;12.57;70.12;102405.69;5007036;28;20129;-69
2023/05/02 07:25:28;;;;;;;7.38;1.88;;;;;;;12.53;70.99;102405.09;4998227;28;20143;-68
2023/05/02 07:27:54;;;;;;;7.85;2.38;;;;;;;12.55;70.22;102413.69;4999636;28;20050;-68
2023/05/02 07:30:20;;;;;;;9.75;2.08;;;;;;;12.54;69.76;102419.09;5002081;28;20476;-69
2023/05/02 07:32:47;;;;;;;7.97;1.85;;;;;;;12.56;70.30;102417.16;4992591;28;20509;-68
2023/05/02 07:35:13;;;;;;;9.13;2.22;;;;;;;12.65;71.02;102425.19;5006649;28;20092;-68
2023/05/02 07:37:40;;;;;;;9.57;2.00;;;;;;;12.72;70.67;102422.06;5001559;28;20105;-69
2023/05/02 07:40:08;;;;;;;8.50;2.13;;;;;;;12.75;67.93;102427.09;5007051;28;20049;-68
2023/05/02 07:42:35;;;;;;;7.90;2.28;;;;;;;12.82;69.16;102437.03;4999381;28;20054;-69
2023/05/02 07:45:01;;;;;;;14.00;2.13;;;;;;;12.96;69.70;102433.28;4999370;28;20503;-68
2023/05/02 07:47:28;;;;;;;9.82;2.08;;;;;;;12.95;66.93;102434.22;5006447;28;20058;-68
2023/05/02 07:49:55;;;;;;;9.55;1.80;;;;;;;13.05;66.78;102437.81;5001655;28;20127;-68
2023/05/02 07:52:21;;;;;;;8.20;1.80;;;;;;;13.10;66.69;102436.63;5005449;28;20189;-69
2023/05/02 07:54:48;;;;;;;6.07;1.95;;;;;;;13.13;64.36;102444.25;4999115;28;20728;-68
2023/05/02 07:57:14;;;;;;;5.03;1.58;;;;;;;13.20;63.47;102434.91;5001218;28;20108;-68
2023/05/02 07:59:41;;;;;;;10.38;1.60;;;;;;;13.26;64.00;102444.94;5002635;28;20062;-69
2023/05/02 08:02:08;;;;;;;7.90;1.70;;;;;;;13.14;60.56;102443.31;5000422;28;20555;-68
2023/05/02 08:04:34;;;;;;;8.95;1.60;;;;;;;13.11;60.80;102438.28;5007183;28;20133;-68
2023/05/02 08:07:01;;;;;;;5.47;1.50;;;;;;;13.03;60.70;102447.66;5001440;28;20058;-69
2023/05/02 08:09:28;;;;;;;8.18;1.88;;;;;;;12.84;61.68;102443.00;5004046;28;20061;-69
2023/05/02 08:11:54;;;;;;;8.50;1.80;;;;;;;12.83;62.82;102456.28;4993398;28;20077;-68
2023/05/02 08:14:21;;;;;;;5.95;2.13;;;;;;;12.74;65.73;102462.25;5006494;28;20076;-69
2023/05/02 08:16:47;;;;;;;8.40;1.85;;;;;;;12.61;64.87;102468.50;5006941;28;20110;-69
2023/05/02 08:19:14;;;;;;;5.75;1.70;;;;;;;12.50;65.20;102476.38;4993509;28;20050;-68
2023/05/02 08:21:41;;;;;;;8.98;1.73;;;;;;;12.50;64.51;102483.44;5007127;28;20071;-68
2023/05/02 08:24:08;;;;;;;6.90;1.77;;;;;;;12.44;65.76;102484.75;4992496;28;20045;-68
2023/05/02 08:26:34;;;;;;;6.63;1.95;;;;;;;12.52;66.16;102481.53;4999910;28;20077;-69
2023/05/02 08:29:02;;;;;;;5.60;1.58;;;;;;;12.45;64.60;102489.91;4997395;28;20049;-68
2023/05/02 08:31:28;;;;;;;8.10;2.17;;;;;;;12.51;64.44;102485.13;5006423;28;20462;-69
2023/05/02 08:33:55;;;;;;;7.35;2.05;;;;;;;12.65;67.08;102500.69;5006103;28;20077;-68
2023/05/02 08:36:21;;;;;;;11.88;1.88;;;;;;;12.78;65.83;102496.16;4998204;28;20054;-68
2023/05/02 08:38:48;;;;;;;8.02;1.60;;;;;;;12.97;65.52;102502.59;5004965;28;20838;-67
2023/05/02 08:41:17;;;;;;;4.90;1.50;;;;;;;13.16;64.91;102500.19;5002920;28;20049;-68
2023/05/02 08:43:46;;;;;;;8.95;1.85;;;;;;;13.29;63.92;102504.47;5008450;28;20073;-68
2023/05/02 08:46:15;;;;;;;5.57;1.55;;;;;;;13.40;63.96;102504.47;5005784;28;20045;-65
2023/05/02 08:48:44;;;;;;;5.88;1.60;;;;;;;13.41;60.63;102503.53;5007908;28;20046;-65
2023/05/02 08:51:14;;;;;;;7.93;1.60;;;;;;;13.39;60.13;102514.19;5000641;28;20046;-64
2023/05/02 08:53:41;;;;;;;6.60;1.52;;;;;;;13.54;60.33;102511.28;5000253;28;20140;-65
2023/05/02 08:56:09;;;;;;;8.68;1.48;;;;;;;13.77;60.28;102514.66;5009876;28;20557;-63
2023/05/02 08:58:39;;;;;;;5.90;1.60;;;;;;;14.28;58.94;102515.75;5005495;28;20235;-64
2023/05/02 09:01:29;;;;;;;5.20;1.50;;;;;;;14.32;58.44;102515.34;5009145;28;20419;-65
2023/05/02 09:03:58;;;;;;;5.10;1.10;;;;;;;14.27;54.36;102512.28;5003513;28;20587;-64
2023/05/02 09:06:26;;;;;;;4.22;1.10;;;;;;;14.38;54.36;102524.56;5004716;28;20054;-64
2023/05/02 09:08:52;;;;;;;4.97;1.20;;;;;;;14.32;53.35;102517.97;5002715;28;20500;-63
2023/05/02 09:11:23;;;;;;;6.55;1.33;;;;;;;14.41;54.24;102519.84;5006955;28;20152;-64
2023/05/02 09:13:51;;;;;;;5.30;1.30;;;;;;;14.44;54.28;102514.31;5009577;28;20049;-65
2023/05/02 09:16:22;;;;;;;3.53;1.30;;;;;;;14.45;53.11;102520.44;4996704;28;20142;-62
2023/05/02 09:18:51;;;;;;;16.52;9.43;;;;;;;14.49;53.47;102527.13;5006701;28;20139;-63
2023/05/02 09:21:20;;;;;;;8.05;3.70;;;;;;;14.37;52.75;102528.16;4999015;28;20423;-62
2023/05/02 09:23:54;;;;;;;3.97;1.35;;;;;;;14.26;53.26;102533.50;5009042;28;20521;-65
2023/05/02 09:26:22;;;;;;;9.13;1.67;;;;;;;14.07;52.96;102537.66;4999421;28;20070;-64
2023/05/02 09:28:50;;;;;;;6.05;1.50;;;;;;;13.96;52.67;102543.84;5008730;28;20042;-62
2023/05/02 09:31:18;;;;;;;;;;;;;;;13.94;52.21;102551.06;5006372;28;20430;-63
2023/05/02 09:34:16;;;;;;;8.57;1.65;;;;;;;14.03;50.85;102542.38;4991818;28;20367;-63
2023/05/02 09:36:52;;;;;;;4.28;1.55;;;;;;;14.13;53.04;102539.81;5001768;28;20053;-64
2023/05/02 09:39:22;;;;;;;8.65;1.60;;;;;;;14.31;54.00;102550.63;4993874;28;20076;-62
2023/05/02 09:41:51;;;;;;;5.20;1.65;;;;;;;14.28;50.79;102550.06;5009786;28;20188;-62
2023/05/02 09:44:21;;;;;;;4.03;1.60;;;;;;;14.29;51.06;102544.66;4991662;28;20049;-63
2023/05/02 09:46:51;;;;;;;8.05;1.70;;;;;;;14.39;50.98;102564.03;5005485;28;20054;-62
2023/05/02 09:49:18;;;;;;;9.73;1.70;;;;;;;14.44;50.03;102561.84;4997928;28;20057;-63
2023/05/02 09:51:47;;;;;;;41.17;20.33;;;;;;;14.27;48.78;102565.06;5008138;28;20062;-60
2023/05/02 09:54:32;;;;;;;5.43;1.35;;;;;;;14.26;48.34;102558.09;5008381;28;20834;-63
2023/05/02 09:56:59;;;;;;;3.88;1.40;;;;;;;14.75;48.68;102561.88;5002156;28;20068;-63
2023/05/02 09:59:25;;;;;;;6.80;1.55;;;;;;;14.99;46.46;102558.97;5006506;28;20049;-63
2023/05/02 10:01:56;;;;;;;5.47;1.50;;;;;;;15.27;49.46;102566.25;4994117;28;20148;-64
2023/05/02 10:04:24;;;;;;;5.13;1.42;;;;;;;15.29;47.94;102556.38;5004094;28;20103;-63
2023/05/02 10:06:52;;;;;;;5.90;1.63;;;;;;;15.17;46.65;102555.66;5000675;28;20085;-63
2023/05/02 10:09:20;;;;;;;6.25;1.88;;;;;;;15.22;47.68;102561.38;5008222;28;20518;-63
2023/05/02 10:11:52;;;;;;;6.78;1.50;;;;;;;15.21;48.40;102562.34;5005878;28;20100;-63
2023/05/02 10:14:21;;;;;;;6.95;1.50;;;;;;;15.10;48.65;102565.94;5002306;28;20498;-64
2023/05/02 10:17:11;;;;;;;4.45;1.63;;;;;;;15.28;48.17;102570.59;5000153;28;20084;-63
2023/05/02 10:19:52;;;;;;;4.95;1.50;;;;;;;15.18;47.26;102567.91;4999082;28;20465;-62
2023/05/02 10:22:20;;;;;;;8.38;1.50;;;;;;;15.82;47.48;102559.59;5006837;28;20053;-63
2023/05/02 10:24:49;;;;;;;3.20;1.30;;;;;;;16.19;46.36;102564.19;5001246;28;20116;-63
2023/05/02 10:27:16;;;;;;;5.63;1.20;;;;;;;16.20;45.01;102562.34;5005666;28;20054;-62
2023/05/02 10:29:43;;;;;;;5.32;1.40;;;;;;;16.42;45.11;102553.25;4998245;28;20116;-64
2023/05/02 10:32:10;;;;;;;4.60;1.30;;;;;;;16.80;45.96;102556.78;4989907;28;20491;-63
2023/05/02 10:34:39;;;;;;;4.45;1.48;;;;;;;17.22;43.34;102553.69;5007611;28;20053;-64
2023/05/02 10:37:05;;;;;;;3.95;1.50;;;;;;;17.53;43.09;102556.03;5004730;28;20054;-63
2023/05/02 10:39:32;;;;;;;5.75;1.50;;;;;;;17.77;41.77;102555.41;5006834;28;20060;-63
2023/05/02 10:42:03;;;;;;;3.75;1.52;;;;;;;17.59;43.45;102553.59;5000647;28;20050;-62
2023/05/02 10:44:33;;;;;;;5.13;1.55;;;;;;;17.21;42.76;102554.69;5002333;28;20046;-63
2023/05/02 10:47:00;;;;;;;4.40;1.60;;;;;;;17.11;43.99;102554.75;4999036;28;20096;-63
2023/05/02 10:49:28;;;;;;;8.70;1.70;;;;;;;17.19;44.14;102564.59;5008275;28;20088;-65
2023/05/02 10:51:55;;;;;;;4.30;1.40;;;;;;;16.87;43.51;102565.00;5006810;28;20422;-65
2023/05/02 10:54:23;;;;;;;5.40;1.70;;;;;;;16.56;43.28;102571.38;5003446;28;20499;-63
2023/05/02 10:57:05;;;;;;;;;;;;;;;16.64;42.97;102573.31;5004097;28;20840;-63
2023/05/02 10:59:36;;;;;;;4.80;1.52;;;;;;;17.08;44.75;102562.13;4999495;28;19947;-65
2023/05/02 11:02:05;;;;;;;11.38;1.70;;;;;;;17.53;43.96;102564.81;5006995;28;20064;-65
2023/05/02 11:05:04;;;;;;;5.40;1.63;;;;;;;17.87;43.31;102564.16;5002552;28;20050;-65
2023/05/02 11:07:35;;;;;;;6.53;1.63;;;;;;;17.93;40.86;102562.72;5003764;28;20454;-64
2023/05/02 11:10:17;;;;;;;4.90;1.55;;;;;;;18.29;42.25;102570.66;4999004;28;20104;-66
2023/05/02 11:12:46;;;;;;;4.65;1.63;;;;;;;18.17;42.25;102570.91;5002803;28;20042;-64
2023/05/02 11:15:32;;;;;;;4.30;1.67;;;;;;;18.36;42.63;102563.72;5002841;28;20461;-66
2023/05/02 11:18:06;;;;;;;7.10;2.13;;;;;;;18.43;41.01;102569.28;5008049;28;20058;-64
2023/05/02 11:20:34;;;;;;;4.68;1.80;;;;;;;18.44;39.81;102555.81;4996360;28;20081;-66
2023/05/02 11:23:17;;;;;;;7.93;1.80;;;;;;;18.16;38.97;102560.44;5005717;28;20419;-62
2023/05/02 11:25:45;;;;;;;8.38;1.80;;;;;;;18.28;40.57;102563.66;5001310;28;20085;-62
2023/05/02 11:28:44;;;;;;;4.32;1.83;;;;;;;18.58;41.13;102559.72;4993044;28;20045;-62